Time;durP1;ratioP1;P1;durP2;ratioP2;P2;SDS_P1;SDS_P2;PMS_P1;PMS_P2;Temp;Humidity;BMP_temperature;BMP_pressure;BME280_temperature;BME280_humidity;BME280_pressure;Samples;Min_cycle;Max_cycle;Signal;HPM_P1;HPM_P2
2022/01/14 00:02:00;;;;;;;26.42;18.77;;;;;;;5.13;45.65;102257.63;1643668;85;21039;-52
2022/01/14 00:04:26;;;;;;;27.85;17.75;;;;;;;5.14;45.68;102254.23;1635612;86;21047;-52
2022/01/14 00:06:53;;;;;;;27.62;19.37;;;;;;;5.16;45.66;102247.80;1628058;86;21106;-52
2022/01/14 00:09:20;;;;;;;27.25;18.15;;;;;;;5.16;45.70;102254.25;1636081;86;21095;-51
2022/01/14 00:11:50;;;;;;;24.35;17.50;;;;;;;5.16;45.66;102255.14;1646889;86;21103;-52
2022/01/14 00:16:47;;;;;;;24.92;17.40;;;;;;;5.20;45.61;102253.49;1643976;86;21050;-51
2022/01/14 00:19:14;;;;;;;27.37;19.00;;;;;;;5.20;45.57;102247.04;1659412;85;21577;-52
2022/01/14 00:21:42;;;;;;;23.35;17.02;;;;;;;5.21;45.50;102237.19;1693306;83;21628;-52
2022/01/14 00:24:13;;;;;;;26.48;18.35;;;;;;;5.22;45.48;102236.34;1690717;83;21501;-53
2022/01/14 00:34:37;;;;;;;24.45;17.23;;;;;;;5.11;45.91;102219.75;1646587;86;21188;-52
2022/01/14 00:37:04;;;;;;;25.35;18.05;;;;;;;5.08;46.03;102219.66;1641307;86;21089;-51
2022/01/14 00:39:31;;;;;;;26.45;17.30;;;;;;;5.11;46.12;102215.88;1653280;86;21057;-52
2022/01/14 00:41:59;;;;;;;25.00;17.30;;;;;;;5.11;46.22;102220.59;1633465;84;21126;-52
2022/01/14 00:44:25;;;;;;;27.15;17.92;;;;;;;5.11;46.27;102211.56;1642282;86;21061;-52
2022/01/14 00:46:52;;;;;;;23.77;16.75;;;;;;;5.14;46.31;102212.06;1630090;86;21039;-51
2022/01/14 00:49:20;;;;;;;23.98;17.25;;;;;;;5.13;46.46;102214.20;1643666;86;21103;-51
2022/01/14 00:51:48;;;;;;;24.63;17.20;;;;;;;5.16;46.50;102197.48;1646071;86;21586;-52
2022/01/14 00:54:15;;;;;;;23.70;16.62;;;;;;;5.14;46.68;102194.00;1629810;86;21089;-53
2022/01/14 00:59:15;;;;;;;25.23;17.37;;;;;;;5.17;46.80;102183.77;1634799;85;21077;-52
2022/01/14 01:01:45;;;;;;;23.92;17.25;;;;;;;5.18;46.93;102172.59;1634847;85;21093;-52
2022/01/14 01:04:32;;;;;;;25.27;17.05;;;;;;;5.19;47.01;102177.81;1648214;86;21073;-51
2022/01/14 01:06:59;;;;;;;21.80;15.78;;;;;;;5.21;47.03;102167.52;1572488;89;22951;-52
2022/01/14 01:09:26;;;;;;;23.15;16.10;;;;;;;5.26;46.97;102169.35;1553313;90;21697;-52
2022/01/14 01:12:07;;;;;;;23.47;15.93;;;;;;;5.32;46.94;102166.02;1563829;90;21105;-52
2022/01/14 01:14:28;;;;;;;21.85;15.75;;;;;;;5.35;47.02;102159.66;1546513;90;21114;-53
2022/01/14 01:16:50;;;;;;;24.10;16.60;;;;;;;5.37;47.09;102164.43;1563047;91;21055;-52
2022/01/14 01:19:17;;;;;;;23.95;16.52;;;;;;;5.38;47.20;102160.58;1566958;90;21050;-53
2022/01/14 01:21:43;;;;;;;23.70;16.77;;;;;;;5.39;47.29;102149.84;1562794;90;21160;-53
2022/01/14 01:24:12;;;;;;;26.45;18.45;;;;;;;5.42;47.37;102149.92;1575273;90;21022;-52
2022/01/14 01:26:40;;;;;;;25.37;15.50;;;;;;;5.42;47.51;102142.19;1569786;90;21154;-52
2022/01/14 01:31:35;;;;;;;22.37;16.23;;;;;;;5.38;47.74;102126.19;1568829;90;21693;-52
2022/01/14 01:34:16;;;;;;;23.67;15.85;;;;;;;5.37;47.81;102126.59;1582994;90;21559;-52
2022/01/14 01:36:46;;;;;;;23.98;16.52;;;;;;;5.40;47.88;102123.21;1590762;89;21081;-52
2022/01/14 01:39:16;;;;;;;21.10;15.43;;;;;;;5.40;47.88;102113.73;1571348;89;21131;-51
2022/01/14 01:41:45;;;;;;;22.87;15.80;;;;;;;5.40;47.78;102105.98;1600005;88;21178;-53
2022/01/14 01:44:13;;;;;;;21.60;14.73;;;;;;;5.43;47.70;102103.90;1587602;89;21049;-52
2022/01/14 01:46:42;;;;;;;22.37;14.75;;;;;;;5.45;47.52;102100.93;1591427;88;21029;-52
2022/01/14 01:49:09;;;;;;;21.42;15.28;;;;;;;5.46;47.30;102096.23;1594362;89;21073;-52
2022/01/14 01:51:36;;;;;;;20.55;14.87;;;;;;;5.45;47.15;102086.73;1595112;88;21195;-52
2022/01/14 01:54:03;;;;;;;21.35;15.55;;;;;;;5.45;47.01;102077.70;1590708;88;21096;-52
2022/01/14 01:56:30;;;;;;;22.55;15.53;;;;;;;5.48;46.92;102072.61;1587805;89;21139;-51
2022/01/14 01:58:57;;;;;;;22.58;15.45;;;;;;;5.48;46.80;102073.90;1597433;88;21061;-52
2022/01/14 02:01:24;;;;;;;23.02;16.15;;;;;;;5.49;46.67;102068.76;1581736;90;21090;-51
2022/01/14 02:03:53;;;;;;;21.35;15.10;;;;;;;5.51;46.58;102063.61;1596394;88;21046;-51
2022/01/14 02:06:20;;;;;;;24.50;16.60;;;;;;;5.52;46.46;102057.63;1610837;87;21597;-51
2022/01/14 02:08:49;;;;;;;21.17;15.13;;;;;;;5.54;46.33;102046.91;1608169;87;21101;-52
2022/01/14 02:11:17;;;;;;;23.87;15.85;;;;;;;5.55;46.21;102052.09;1573088;89;21140;-51
2022/01/14 02:13:44;;;;;;;20.92;14.83;;;;;;;5.56;46.05;102042.64;1550399;90;21102;-51
2022/01/14 02:16:19;;;;;;;18.37;13.83;;;;;;;5.56;45.89;102034.45;1570743;90;21141;-52
2022/01/14 02:19:13;;;;;;;20.15;14.55;;;;;;;5.55;45.77;102021.52;1537560;90;21093;-52
2022/01/14 02:26:50;;;;;;;19.15;14.63;;;;;;;5.55;45.40;102013.78;1566801;90;21564;-54
2022/01/14 02:29:17;;;;;;;21.10;14.47;;;;;;;5.55;45.34;102009.91;1564820;90;21081;-51
2022/01/14 02:31:44;;;;;;;20.35;14.90;;;;;;;5.57;45.31;102015.97;1568230;90;21095;-51
2022/01/14 02:34:12;;;;;;;20.25;13.90;;;;;;;5.57;45.21;102004.35;1567244;90;21263;-51
2022/01/14 02:36:43;;;;;;;21.00;14.85;;;;;;;5.60;45.20;102016.04;1544147;91;21104;-51
2022/01/14 02:39:11;;;;;;;18.57;13.93;;;;;;;5.61;45.17;102011.31;1614070;86;21023;-51
2022/01/14 02:41:39;;;;;;;19.52;13.70;;;;;;;5.61;45.22;102003.56;1690909;83;21476;-52
2022/01/14 02:44:08;;;;;;;18.73;14.03;;;;;;;5.64;45.24;102003.63;1691697;83;21022;-52
2022/01/14 02:46:40;;;;;;;18.60;13.90;;;;;;;5.65;45.26;102006.65;1687104;83;21050;-51
2022/01/14 02:49:04;;;;;;;17.98;12.95;;;;;;;5.65;45.30;102004.06;1676553;83;21039;-51
2022/01/14 02:51:31;;;;;;;19.12;13.95;;;;;;;5.67;45.28;101999.80;1677922;83;21079;-52
2022/01/14 02:54:22;;;;;;;19.32;14.23;;;;;;;5.69;45.32;101985.20;1686389;83;21149;-52
2022/01/14 02:56:49;;;;;;;19.65;12.93;;;;;;;5.73;45.24;101986.99;1679696;83;21521;-51
2022/01/14 02:59:17;;;;;;;18.40;13.35;;;;;;;5.71;45.21;101986.09;1711118;83;21025;-52
2022/01/14 03:01:45;;;;;;;17.75;12.18;;;;;;;5.73;45.16;101984.41;1668870;85;21074;-52
2022/01/14 03:04:15;;;;;;;18.25;13.65;;;;;;;5.76;45.12;101976.73;1658000;84;21552;-52
2022/01/14 03:06:42;;;;;;;17.35;12.55;;;;;;;5.76;45.15;101975.02;1652134;85;21577;-52
2022/01/14 03:09:08;;;;;;;16.97;12.65;;;;;;;5.76;45.24;101972.86;1656187;84;21062;-52
2022/01/14 03:11:41;;;;;;;18.52;13.72;;;;;;;5.77;45.23;101971.58;1661871;85;21510;-51
2022/01/14 03:14:09;;;;;;;19.20;13.48;;;;;;;5.80;45.22;101975.94;1672633;85;21557;-51
2022/01/14 03:16:41;;;;;;;20.12;14.23;;;;;;;5.83;45.19;101960.51;1674030;85;21538;-51
2022/01/14 03:19:15;;;;;;;17.55;12.50;;;;;;;5.83;45.21;101948.88;1623491;88;21079;-51
2022/01/14 03:21:41;;;;;;;16.42;12.47;;;;;;;5.86;45.25;101955.82;1665047;85;21045;-52
2022/01/14 03:24:17;;;;;;;17.02;11.88;;;;;;;5.86;45.25;101955.41;1656344;85;21093;-53
2022/01/14 03:26:34;;;;;;;18.90;13.00;;;;;;;5.88;45.28;101958.88;1652958;85;21845;-52
2022/01/14 03:29:00;;;;;;;18.77;12.80;;;;;;;5.88;45.41;101964.05;1675621;85;21572;-51
2022/01/14 03:31:26;;;;;;;16.57;12.23;;;;;;;5.89;45.44;101969.68;1654235;85;21056;-52
2022/01/14 03:33:53;;;;;;;19.25;13.10;;;;;;;5.89;45.55;101967.52;1661279;85;21025;-51
2022/01/14 03:36:19;;;;;;;16.17;12.15;;;;;;;5.90;45.59;101962.36;1668692;85;21127;-51
2022/01/14 03:38:46;;;;;;;18.23;12.47;;;;;;;5.92;45.64;101960.67;1663848;85;21105;-51
2022/01/14 03:41:12;;;;;;;17.12;12.70;;;;;;;5.93;45.66;101965.01;1667557;84;21522;-51
2022/01/14 03:43:40;;;;;;;19.27;12.28;;;;;;;5.93;45.68;101957.26;1663197;85;21014;-51
2022/01/14 03:46:07;;;;;;;18.15;11.53;;;;;;;5.94;45.70;101957.69;1661495;85;21162;-53
2022/01/14 03:48:34;;;;;;;18.40;12.80;;;;;;;5.95;45.72;101960.73;1640437;86;21047;-51
2022/01/14 03:51:00;;;;;;;14.58;10.45;;;;;;;5.97;45.72;101944.84;1647751;86;21069;-52
2022/01/14 03:53:27;;;;;;;16.42;12.03;;;;;;;6.00;45.71;101946.16;1643210;86;21050;-51
2022/01/14 03:55:54;;;;;;;16.42;11.20;;;;;;;6.03;45.67;101942.34;1661599;85;21167;-51
2022/01/14 03:58:20;;;;;;;13.28;10.53;;;;;;;6.04;45.60;101946.66;1672232;85;21056;-51
2022/01/14 04:00:47;;;;;;;21.40;11.53;;;;;;;6.07;45.55;101946.72;1684439;83;21062;-52
2022/01/14 04:03:14;;;;;;;15.15;11.57;;;;;;;6.08;45.54;101939.39;1687121;83;21049;-51
2022/01/14 04:05:40;;;;;;;17.87;11.75;;;;;;;6.09;45.54;101933.39;1682247;83;21067;-51
2022/01/14 04:08:07;;;;;;;16.17;10.53;;;;;;;6.10;45.58;101931.69;1694977;83;21038;-51
2022/01/14 04:10:34;;;;;;;13.93;10.90;;;;;;;6.11;45.59;101925.24;1699867;82;21006;-51
2022/01/14 04:15:36;;;;;;;15.32;11.25;;;;;;;6.13;45.77;101927.42;1625914;87;21200;-52
2022/01/14 04:18:15;;;;;;;16.00;11.30;;;;;;;6.18;45.79;101919.75;1638195;86;21070;-51
2022/01/14 04:20:44;;;;;;;16.35;11.05;;;;;;;6.19;45.89;101916.30;1636579;88;21105;-52
2022/01/14 04:23:14;;;;;;;14.33;10.53;;;;;;;6.22;45.90;101924.11;1636732;87;21515;-52
2022/01/14 04:25:41;;;;;;;13.28;10.00;;;;;;;6.23;45.97;101925.42;1636503;88;21077;-51
2022/01/14 04:28:10;;;;;;;14.18;10.32;;;;;;;6.25;46.10;101937.94;1636925;87;21054;-52
2022/01/14 04:30:37;;;;;;;14.07;10.40;;;;;;;6.27;46.17;101929.78;1636916;87;21569;-51
2022/01/14 04:33:04;;;;;;;14.47;10.40;;;;;;;6.30;46.31;101925.96;1636638;88;21626;-51
2022/01/14 04:35:32;;;;;;;12.95;10.10;;;;;;;6.35;46.38;101923.42;1636447;88;21078;-51
2022/01/14 04:37:59;;;;;;;13.18;10.53;;;;;;;6.35;46.57;101923.42;1636759;88;21058;-51
2022/01/14 04:40:25;;;;;;;13.10;10.05;;;;;;;6.37;46.55;101916.13;1636651;88;21046;-51
2022/01/14 04:42:53;;;;;;;13.98;9.98;;;;;;;6.39;46.64;101914.86;1636912;88;21030;-51
2022/01/14 04:45:29;;;;;;;14.63;10.70;;;;;;;6.41;46.63;101917.91;1636767;86;21014;-51
2022/01/14 04:47:55;;;;;;;13.38;9.95;;;;;;;6.44;46.54;101910.63;1633310;87;21058;-52
2022/01/14 04:50:25;;;;;;;13.00;9.78;;;;;;;6.47;46.53;101916.70;1636868;86;21062;-51
2022/01/14 04:52:51;;;;;;;14.55;10.48;;;;;;;6.50;46.57;101905.53;1636829;86;21038;-51
2022/01/14 04:55:21;;;;;;;13.25;10.40;;;;;;;6.50;46.58;101906.41;1636454;86;21066;-51
2022/01/14 04:57:48;;;;;;;12.53;9.70;;;;;;;6.53;46.59;101906.44;1636746;87;21043;-51
2022/01/14 05:00:19;;;;;;;13.22;10.28;;;;;;;6.53;46.65;101901.27;1636811;88;21066;-51
2022/01/14 05:02:47;;;;;;;13.65;10.20;;;;;;;6.50;46.85;101910.30;1577267;91;21115;-52
2022/01/14 05:05:17;;;;;;;16.27;10.32;;;;;;;6.51;46.92;101902.96;1566460;91;21594;-52
2022/01/14 05:07:44;;;;;;;13.90;9.50;;;;;;;6.55;46.95;101898.72;1577246;91;21093;-51
2022/01/14 05:12:57;;;;;;;13.18;9.03;;;;;;;6.59;46.96;101903.92;1566545;90;21077;-52
2022/01/14 05:15:23;;;;;;;12.23;9.65;;;;;;;6.59;46.96;101895.33;1606028;88;21075;-52
2022/01/14 05:17:50;;;;;;;12.43;9.83;;;;;;;6.62;46.95;101900.94;1602448;88;21032;-52
2022/01/14 05:20:17;;;;;;;13.53;9.85;;;;;;;6.62;46.95;101898.34;1608598;88;21100;-52
2022/01/14 05:22:45;;;;;;;12.80;10.43;;;;;;;6.63;46.94;101894.52;1598840;88;21607;-52
2022/01/14 05:25:13;;;;;;;13.03;9.75;;;;;;;6.65;46.94;101896.69;1608807;88;21156;-52
2022/01/14 05:27:41;;;;;;;12.93;10.28;;;;;;;6.67;46.91;101892.82;1617622;88;21584;-52
2022/01/14 05:30:11;;;;;;;13.70;10.18;;;;;;;6.69;46.90;101882.06;1613058;88;21117;-53
2022/01/14 05:32:47;;;;;;;13.15;9.75;;;;;;;6.69;46.92;101878.19;1601960;89;21056;-53
2022/01/14 05:35:16;;;;;;;13.13;10.15;;;;;;;6.70;46.97;101877.36;1551644;91;21090;-51
2022/01/14 05:37:42;;;;;;;12.03;9.30;;;;;;;6.71;47.03;101881.66;1569327;91;21070;-51
2022/01/14 05:40:11;;;;;;;13.62;9.38;;;;;;;6.71;47.04;101876.48;1575710;91;21042;-51
2022/01/14 05:42:37;;;;;;;13.48;9.95;;;;;;;6.73;47.04;101867.03;1574232;91;21638;-52
2022/01/14 05:45:05;;;;;;;12.37;9.30;;;;;;;6.74;47.04;101871.37;1573996;91;21622;-52
2022/01/14 05:47:34;;;;;;;12.03;9.00;;;;;;;6.75;47.03;101865.33;1573777;91;21127;-51
2022/01/14 05:50:03;;;;;;;12.37;9.25;;;;;;;6.77;47.03;101858.45;1577199;91;21570;-51
2022/01/14 05:52:31;;;;;;;12.75;9.58;;;;;;;6.79;46.99;101860.63;1574026;91;21043;-51
2022/01/14 05:54:57;;;;;;;15.20;9.50;;;;;;;6.81;46.92;101857.63;1574538;91;21427;-51
2022/01/14 05:57:24;;;;;;;12.20;9.78;;;;;;;6.81;46.92;101855.05;1575460;91;21054;-51
2022/01/14 05:59:50;;;;;;;12.45;9.10;;;;;;;6.84;46.79;101851.22;1572473;91;21566;-51
2022/01/14 06:02:17;;;;;;;13.20;9.38;;;;;;;6.85;46.77;101849.05;1573647;91;21047;-51
2022/01/14 06:04:45;;;;;;;14.05;9.18;;;;;;;6.85;46.70;101851.22;1573885;91;21009;-51
2022/01/14 06:07:11;;;;;;;12.82;9.93;;;;;;;6.87;46.60;101844.77;1596879;88;21645;-51
2022/01/14 06:09:37;;;;;;;15.98;10.50;;;;;;;6.89;46.44;101848.23;1614562;86;21541;-51
2022/01/14 06:12:05;;;;;;;11.80;9.13;;;;;;;6.88;46.34;101849.09;1603988;88;21110;-51
2022/01/14 06:14:32;;;;;;;13.62;9.75;;;;;;;6.88;46.25;101851.27;1607520;88;21039;-51
2022/01/14 06:16:59;;;;;;;16.40;10.48;;;;;;;6.86;46.21;101854.23;1627885;87;21070;-51
2022/01/14 06:19:29;;;;;;;14.38;9.63;;;;;;;6.86;46.16;101855.98;1615908;88;21097;-51
2022/01/14 06:21:57;;;;;;;12.98;9.50;;;;;;;6.86;46.10;101850.80;1609362;87;21601;-51
2022/01/14 06:24:23;;;;;;;12.95;9.40;;;;;;;6.84;46.07;101847.33;1623558;88;21522;-51
2022/01/14 06:26:50;;;;;;;14.00;10.63;;;;;;;6.82;46.01;101849.88;1626448;87;21636;-51
2022/01/14 06:29:16;;;;;;;15.30;10.30;;;;;;;6.81;46.01;101840.81;1605308;87;21118;-51
2022/01/14 06:31:43;;;;;;;14.35;9.80;;;;;;;6.80;46.08;101844.27;1663108;83;21081;-51
2022/01/14 06:34:09;;;;;;;13.75;10.53;;;;;;;6.79;46.12;101843.81;1682659;83;20999;-52
2022/01/14 06:36:35;;;;;;;14.15;9.78;;;;;;;6.78;46.18;101840.80;1688795;83;21114;-51
2022/01/14 06:39:02;;;;;;;13.08;9.73;;;;;;;6.76;46.21;101847.68;1699579;83;21054;-51
2022/01/14 06:41:29;;;;;;;12.95;9.95;;;;;;;6.75;46.31;101842.05;1696283;83;21041;-51
2022/01/14 06:43:55;;;;;;;14.45;10.05;;;;;;;6.76;46.36;101836.87;1688805;83;21621;-51
2022/01/14 06:46:22;;;;;;;13.00;9.65;;;;;;;6.75;46.45;101843.34;1699329;83;21514;-51
2022/01/14 06:48:48;;;;;;;12.82;10.10;;;;;;;6.77;46.50;101835.17;1686759;83;21053;-51
2022/01/14 06:51:15;;;;;;;14.23;10.28;;;;;;;6.78;46.47;101836.92;1690660;83;21506;-51
2022/01/14 06:53:42;;;;;;;12.95;10.30;;;;;;;6.78;46.47;101830.00;1682739;83;21557;-51
2022/01/14 06:56:14;;;;;;;12.45;9.75;;;;;;;6.79;46.53;101825.70;1679945;83;21022;-51
2022/01/14 06:58:41;;;;;;;13.62;9.70;;;;;;;6.80;46.58;101823.13;1683125;83;21049;-52
2022/01/14 07:01:08;;;;;;;12.58;9.40;;;;;;;6.81;46.61;101817.12;1679503;83;21589;-51
2022/01/14 07:03:34;;;;;;;14.13;10.85;;;;;;;6.83;46.63;101811.95;1687901;83;21066;-51
2022/01/14 07:06:01;;;;;;;12.73;10.10;;;;;;;6.82;46.66;101802.47;1685856;83;21082;-51
2022/01/14 07:08:28;;;;;;;14.68;10.20;;;;;;;6.84;46.72;101794.30;1684194;83;21025;-51
2022/01/14 07:10:54;;;;;;;13.88;9.75;;;;;;;6.86;46.70;101788.72;1684429;83;21071;-51
2022/01/14 07:13:21;;;;;;;16.85;11.50;;;;;;;6.88;46.73;101777.95;1683486;83;21006;-52
2022/01/14 07:15:47;;;;;;;14.40;10.65;;;;;;;6.89;46.70;101779.67;1679232;83;21133;-52
2022/01/14 07:18:16;;;;;;;14.07;10.20;;;;;;;6.91;46.76;101777.96;1676694;84;21026;-51
2022/01/14 07:20:42;;;;;;;14.28;10.30;;;;;;;6.92;46.81;101781.01;1693843;83;21073;-52
2022/01/14 07:23:09;;;;;;;12.70;10.18;;;;;;;6.93;46.90;101782.73;1694591;83;21070;-51
2022/01/14 07:25:37;;;;;;;13.55;10.25;;;;;;;6.94;46.92;101784.48;1687904;83;21021;-51
2022/01/14 07:28:04;;;;;;;12.28;9.35;;;;;;;6.95;46.96;101774.55;1691369;83;21536;-51
2022/01/14 07:30:32;;;;;;;14.07;9.30;;;;;;;6.96;47.00;101767.25;1689116;83;21092;-51
2022/01/14 07:32:59;;;;;;;12.78;9.55;;;;;;;6.97;46.99;101771.55;1696993;82;21073;-51
2022/01/14 07:35:25;;;;;;;12.20;9.03;;;;;;;6.97;46.99;101758.61;1685579;83;21112;-51
2022/01/14 07:37:52;;;;;;;12.85;9.50;;;;;;;6.99;46.90;101758.20;1683919;83;21042;-51
2022/01/14 07:40:18;;;;;;;13.75;9.70;;;;;;;6.98;46.83;101747.42;1686544;83;21054;-51
2022/01/14 07:42:45;;;;;;;10.78;8.70;;;;;;;7.00;46.79;101739.25;1687182;83;21076;-51
2022/01/14 07:45:11;;;;;;;13.70;10.03;;;;;;;7.01;46.75;101737.08;1688368;83;21073;-51
2022/01/14 07:47:38;;;;;;;12.93;9.20;;;;;;;7.02;46.67;101723.31;1673344;83;21070;-52
2022/01/14 07:50:06;;;;;;;13.03;9.43;;;;;;;7.02;46.65;101718.13;1691591;83;21557;-51
2022/01/14 07:52:33;;;;;;;13.53;9.45;;;;;;;7.02;46.69;101718.13;1691436;83;21038;-51
2022/01/14 07:54:59;;;;;;;12.15;9.48;;;;;;;7.01;46.74;101704.32;1697249;83;21098;-51
2022/01/14 07:57:26;;;;;;;14.07;9.45;;;;;;;7.03;46.76;101707.78;1686063;83;21478;-51
2022/01/14 07:59:52;;;;;;;14.75;9.90;;;;;;;7.06;46.80;101699.19;1686770;83;21513;-51
2022/01/14 08:02:20;;;;;;;12.33;9.78;;;;;;;7.06;46.83;101692.72;1694134;83;21530;-52
2022/01/14 08:04:48;;;;;;;12.85;9.35;;;;;;;7.08;46.80;101687.13;1692501;83;21092;-52
2022/01/14 08:07:17;;;;;;;12.40;9.68;;;;;;;7.09;46.74;101682.40;1681445;83;21015;-51
2022/01/14 08:09:43;;;;;;;15.88;10.65;;;;;;;7.11;46.71;101674.22;1700593;83;21097;-51
2022/01/14 08:12:12;;;;;;;12.03;9.30;;;;;;;7.12;46.62;101665.58;1697188;83;21483;-51
2022/01/14 08:14:38;;;;;;;14.68;10.48;;;;;;;7.13;46.61;101664.74;1684408;83;21607;-51
2022/01/14 08:17:05;;;;;;;13.75;9.83;;;;;;;7.13;46.59;101665.58;1676766;83;21554;-52
2022/01/14 08:19:36;;;;;;;16.05;10.68;;;;;;;7.14;46.59;101665.16;1689109;83;21526;-51
2022/01/14 08:22:04;;;;;;;14.40;10.03;;;;;;;7.18;46.56;101670.80;1681720;83;21545;-51
2022/01/14 08:24:32;;;;;;;12.98;9.98;;;;;;;7.20;46.56;101669.08;1697440;83;21006;-51
2022/01/14 08:26:58;;;;;;;13.62;10.40;;;;;;;7.22;46.59;101664.78;1679394;83;21050;-51
2022/01/14 08:29:27;;;;;;;14.83;11.12;;;;;;;7.24;46.65;101656.59;1691825;83;21054;-52
2022/01/14 08:31:54;;;;;;;14.23;10.85;;;;;;;7.27;46.65;101657.47;1681003;83;21553;-52
2022/01/14 08:34:21;;;;;;;18.92;10.90;;;;;;;7.34;46.57;101657.09;1703367;83;21531;-51
2022/01/14 08:36:47;;;;;;;14.83;10.68;;;;;;;7.36;46.49;101645.89;1688985;83;21522;-51
2022/01/14 08:39:15;;;;;;;15.45;11.22;;;;;;;7.40;46.43;101650.64;1679508;83;21606;-52
2022/01/14 08:41:41;;;;;;;14.07;10.50;;;;;;;7.44;46.41;101647.66;1683652;83;21098;-53
2022/01/14 08:44:08;;;;;;;13.45;9.78;;;;;;;7.45;46.36;101642.48;1684663;83;21575;-52
2022/01/14 08:46:35;;;;;;;14.95;11.45;;;;;;;7.48;46.31;101639.89;1695526;83;21550;-51
2022/01/14 08:49:02;;;;;;;12.23;9.63;;;;;;;7.50;46.22;101632.16;1690041;83;21565;-51
2022/01/14 08:51:29;;;;;;;15.08;10.98;;;;;;;7.51;46.17;101623.09;1684804;83;21045;-51
2022/01/14 08:53:57;;;;;;;13.53;10.70;;;;;;;7.53;46.14;101629.14;1680074;83;21524;-51
2022/01/14 08:56:24;;;;;;;13.78;10.53;;;;;;;7.53;46.15;101627.84;1686165;84;20995;-51
2022/01/14 08:58:51;;;;;;;14.30;10.85;;;;;;;7.55;46.08;101626.13;1684750;83;21125;-51
2022/01/14 09:01:17;;;;;;;17.90;11.70;;;;;;;7.57;46.08;101627.00;1703243;83;21057;-51
2022/01/14 09:03:44;;;;;;;14.93;10.78;;;;;;;7.59;46.08;101626.58;1681841;83;21561;-51
2022/01/14 09:06:10;;;;;;;15.08;11.05;;;;;;;7.61;46.13;101619.67;1690293;83;21592;-51
2022/01/14 09:08:37;;;;;;;13.18;10.20;;;;;;;7.61;46.12;101617.51;1685049;84;21053;-51
2022/01/14 09:11:03;;;;;;;13.93;11.15;;;;;;;7.64;46.10;101617.11;1696568;83;21006;-51
2022/01/14 09:13:30;;;;;;;13.70;10.90;;;;;;;7.67;46.18;101619.70;1693643;83;21106;-51
2022/01/14 09:15:57;;;;;;;17.25;11.97;;;;;;;7.69;46.15;101615.81;1693505;83;21003;-51
2022/01/14 09:18:23;;;;;;;13.53;10.78;;;;;;;7.71;46.18;101616.26;1680311;83;21030;-51
2022/01/14 09:20:50;;;;;;;13.72;10.88;;;;;;;7.73;46.12;101605.47;1695526;83;21089;-52
2022/01/14 09:23:23;;;;;;;14.47;11.45;;;;;;;7.74;46.10;101594.27;1700027;83;21077;-52
2022/01/14 09:25:45;;;;;;;14.75;10.78;;;;;;;7.75;46.13;101585.61;1690933;83;21608;-51
2022/01/14 09:28:12;;;;;;;15.72;11.10;;;;;;;7.79;46.13;101576.15;1685965;83;21136;-51
2022/01/14 09:30:38;;;;;;;22.55;13.62;;;;;;;7.81;46.18;101568.79;1688383;83;21067;-52
2022/01/14 09:33:06;;;;;;;16.50;12.43;;;;;;;7.82;46.31;101565.35;1684436;83;21027;-51
2022/01/14 09:35:33;;;;;;;17.95;13.18;;;;;;;7.87;46.39;101554.55;1686559;83;20982;-51
2022/01/14 09:38:00;;;;;;;15.78;11.40;;;;;;;7.91;46.52;101558.03;1690496;83;21498;-51
2022/01/14 09:40:27;;;;;;;15.70;11.90;;;;;;;7.93;46.55;101550.67;1697783;83;21085;-51
2022/01/14 09:43:00;;;;;;;15.75;11.55;;;;;;;7.96;46.61;101537.73;1682951;83;21498;-52
2022/01/14 09:45:23;;;;;;;17.12;11.75;;;;;;;8.00;46.72;101539.47;1694713;83;21002;-52
2022/01/14 09:47:50;;;;;;;15.58;11.80;;;;;;;8.01;46.84;101541.21;1686818;83;21098;-52
2022/01/14 09:50:18;;;;;;;15.98;12.23;;;;;;;8.05;46.92;101527.81;1691342;83;21126;-52
2022/01/14 09:52:47;;;;;;;15.65;11.22;;;;;;;8.10;46.81;101513.98;1682844;83;21050;-51
2022/01/14 09:55:13;;;;;;;14.93;11.48;;;;;;;8.16;46.71;101504.91;1678509;83;21149;-51
2022/01/14 09:57:40;;;;;;;15.08;11.08;;;;;;;8.23;46.52;101488.50;1692213;83;21025;-51
2022/01/14 10:00:08;;;;;;;13.62;10.60;;;;;;;8.30;46.32;101479.03;1676909;83;21029;-52
2022/01/14 10:02:40;;;;;;;14.45;11.15;;;;;;;8.35;46.20;101483.76;1683246;83;21037;-51
2022/01/14 10:05:31;;;;;;;17.63;12.40;;;;;;;8.41;46.03;101482.91;1664261;85;21023;-51
2022/01/14 10:08:10;;;;;;;14.28;10.90;;;;;;;8.46;45.89;101471.66;1652189;85;21559;-51
2022/01/14 10:10:38;;;;;;;15.40;11.43;;;;;;;8.52;45.71;101444.83;1645964;85;21683;-51
2022/01/14 10:13:21;;;;;;;15.08;11.75;;;;;;;8.55;45.65;101437.89;1649679;85;21014;-52
2022/01/14 10:15:52;;;;;;;16.55;11.70;;;;;;;8.61;45.40;101438.33;1600472;88;21049;-51
2022/01/14 10:18:21;;;;;;;14.95;11.78;;;;;;;8.64;45.30;101424.04;1568322;90;21574;-52
2022/01/14 10:20:49;;;;;;;14.65;11.88;;;;;;;8.69;45.20;101422.31;1580085;89;21107;-51
2022/01/14 10:23:15;;;;;;;13.48;11.45;;;;;;;8.71;45.11;101413.66;1572416;89;21076;-53
2022/01/14 10:25:55;;;;;;;17.40;12.10;;;;;;;8.73;45.04;101413.64;1587018;90;21149;-51
2022/01/14 10:28:22;;;;;;;14.95;11.50;;;;;;;8.74;45.04;101407.56;1572842;89;21146;-51
2022/01/14 10:30:49;;;;;;;15.30;10.75;;;;;;;8.76;44.79;101403.23;1565194;91;21578;-52
2022/01/14 10:33:23;;;;;;;16.85;12.15;;;;;;;8.76;44.70;101387.66;1556595;90;21056;-52
2022/01/14 10:35:49;;;;;;;13.83;11.08;;;;;;;8.76;44.71;101382.05;1552784;91;21121;-52
2022/01/14 10:38:19;;;;;;;13.15;10.20;;;;;;;8.77;44.68;101384.22;1581507;90;21165;-52
2022/01/14 10:40:52;;;;;;;14.07;11.18;;;;;;;8.78;44.67;101374.25;1585904;89;21033;-52
2022/01/14 10:43:21;;;;;;;13.22;9.55;;;;;;;8.78;44.68;101367.77;1561657;90;21108;-51
2022/01/14 10:45:48;;;;;;;15.43;11.53;;;;;;;8.78;44.68;101371.23;1526910;91;21614;-52
2022/01/14 10:48:18;;;;;;;16.15;12.37;;;;;;;8.79;44.58;101366.91;1531122;92;21573;-51
2022/01/14 10:50:48;;;;;;;16.77;11.83;;;;;;;8.77;44.56;101358.27;1534116;92;21075;-51
2022/01/14 10:53:20;;;;;;;14.40;10.70;;;;;;;8.80;44.54;101356.94;1555535;91;21231;-52
2022/01/14 10:56:03;;;;;;;16.02;11.50;;;;;;;8.78;44.47;101345.28;1560243;90;21079;-52
2022/01/14 10:58:35;;;;;;;13.48;11.00;;;;;;;8.78;44.46;101330.14;1538482;92;21108;-52
2022/01/14 11:01:06;;;;;;;13.93;11.10;;;;;;;8.79;44.52;101320.20;1496342;94;21611;-51
2022/01/14 11:03:43;;;;;;;14.25;11.12;;;;;;;8.78;44.61;101315.87;1528428;93;21726;-52
2022/01/14 11:06:27;;;;;;;13.62;11.53;;;;;;;8.79;44.61;101311.13;1532043;92;21626;-52
2022/01/14 11:09:12;;;;;;;13.48;10.90;;;;;;;8.81;44.45;101301.16;1529679;93;21090;-51
2022/01/14 11:11:44;;;;;;;16.20;12.05;;;;;;;8.73;44.53;101291.70;1537311;91;21872;-51
2022/01/14 11:14:11;;;;;;;14.00;11.12;;;;;;;8.74;44.29;101288.22;1538499;89;21133;-51
2022/01/14 11:16:38;;;;;;;15.28;11.10;;;;;;;8.76;44.33;101275.66;1580320;89;21147;-52
2022/01/14 11:19:08;;;;;;;14.63;11.57;;;;;;;8.79;44.31;101263.12;1585053;88;21054;-51
2022/01/14 11:27:07;;;;;;;15.43;12.07;;;;;;;8.96;43.90;101235.33;1536375;93;21066;-51
2022/01/14 11:29:37;;;;;;;16.60;11.73;;;;;;;9.02;43.81;101227.48;1537707;92;21067;-51
2022/01/14 11:32:05;;;;;;;15.90;12.07;;;;;;;9.09;43.61;101219.22;1521504;92;21136;-51
2022/01/14 11:34:47;;;;;;;15.75;12.75;;;;;;;9.14;43.42;101211.81;1521295;92;21096;-51
2022/01/14 11:37:31;;;;;;;15.25;12.50;;;;;;;9.20;43.39;101198.77;1537962;93;21142;-51
2022/01/14 11:40:07;;;;;;;15.53;12.90;;;;;;;9.27;43.22;101191.36;1548495;92;21582;-51
2022/01/14 11:42:46;;;;;;;14.73;12.03;;;;;;;9.32;43.05;101188.27;1585731;90;21123;-51
2022/01/14 11:45:23;;;;;;;16.73;12.88;;;;;;;9.37;42.87;101192.13;1548044;92;21095;-51
2022/01/14 11:47:52;;;;;;;17.50;12.63;;;;;;;9.40;42.71;101170.87;1501605;94;21573;-51
2022/01/14 11:50:27;;;;;;;14.53;11.43;;;;;;;9.44;42.69;101176.88;1509272;94;21146;-51
2022/01/14 11:52:53;;;;;;;14.65;11.22;;;;;;;9.47;42.67;101179.03;1494267;94;21124;-51
2022/01/14 11:55:35;;;;;;;14.63;11.22;;;;;;;9.48;42.65;101162.55;1506896;94;21094;-51
2022/01/14 11:58:03;;;;;;;;;;;;;;;9.52;42.55;101161.64;1513031;94;21087;-52